Time;durP1;ratioP1;P1;durP2;ratioP2;P2;SDS_P1;SDS_P2;PMS_P1;PMS_P2;Temp;Humidity;BMP_temperature;BMP_pressure;BME280_temperature;BME280_humidity;BME280_pressure;Samples;Min_cycle;Max_cycle;Signal;HPM_P1;HPM_P2
2023/10/15 00:00:13;;;;;;;7.28;2.95;;;;;;;15.42;86.24;100156.50;5011077;28;20054;-68
2023/10/15 00:02:44;;;;;;;5.13;3.05;;;;;;;15.55;84.29;100165.31;5010527;28;20030;-73
2023/10/15 00:05:15;;;;;;;4.88;2.78;;;;;;;15.56;81.61;100167.91;5010558;28;20042;-70
2023/10/15 00:07:41;;;;;;;7.22;3.10;;;;;;;15.60;81.05;100153.22;5010487;28;20114;-69
2023/10/15 00:10:15;;;;;;;8.77;2.92;;;;;;;15.59;81.49;100160.16;5010768;28;20037;-71
2023/10/15 00:12:43;;;;;;;7.85;2.88;;;;;;;15.63;81.72;100168.88;5011531;28;20014;-69
2023/10/15 00:15:19;;;;;;;6.22;2.70;;;;;;;15.29;83.82;100173.66;5010142;28;20069;-73
2023/10/15 00:17:50;;;;;;;6.65;3.03;;;;;;;15.17;85.11;100161.38;5010152;28;20092;-70
2023/10/15 00:20:17;;;;;;;6.00;3.20;;;;;;;15.28;86.54;100178.00;5010609;28;20030;-68
2023/10/15 00:22:43;;;;;;;6.63;2.78;;;;;;;15.28;85.27;100167.59;5010651;28;20104;-73
2023/10/15 00:25:12;;;;;;;5.43;3.13;;;;;;;15.15;85.07;100163.97;5010139;28;20033;-72
2023/10/15 00:27:38;;;;;;;10.57;2.95;;;;;;;15.03;86.84;100166.41;5009291;28;20038;-67
2023/10/15 00:30:12;;;;;;;9.88;2.85;;;;;;;15.08;88.14;100166.44;5010606;28;20030;-71
2023/10/15 00:32:43;;;;;;;7.45;2.88;;;;;;;15.01;87.48;100153.34;5010172;28;20477;-70
2023/10/15 00:35:09;;;;;;;11.48;3.03;;;;;;;15.06;88.81;100156.03;5010225;28;20033;-71
2023/10/15 00:37:40;;;;;;;8.07;3.33;;;;;;;15.16;88.45;100152.69;5011261;28;20041;-71
2023/10/15 00:40:06;;;;;;;5.30;2.50;;;;;;;15.14;87.22;100136.22;5010277;28;20040;-71
2023/10/15 00:42:32;;;;;;;7.60;3.10;;;;;;;15.10;85.63;100139.59;5010115;28;20034;-73
2023/10/15 00:44:57;;;;;;;5.32;2.90;;;;;;;15.12;86.03;100142.25;5008496;28;20045;-70
2023/10/15 00:47:23;;;;;;;6.07;2.83;;;;;;;15.08;85.23;100143.94;5010221;28;20448;-70
2023/10/15 00:49:48;;;;;;;7.47;2.80;;;;;;;14.76;85.71;100135.69;5010578;28;20025;-70
2023/10/15 00:52:15;;;;;;;6.78;2.80;;;;;;;14.88;86.27;100138.47;5010881;28;20021;-68
2023/10/15 00:54:41;;;;;;;6.28;2.90;;;;;;;14.83;85.92;100130.59;5010117;28;20136;-70
2023/10/15 00:57:26;;;;;;;10.98;3.13;;;;;;;14.79;86.81;100139.22;5011264;28;20113;-71
2023/10/15 00:59:54;;;;;;;5.03;2.63;;;;;;;14.52;86.53;100087.69;5007410;28;20041;-70
2023/10/15 01:02:23;;;;;;;4.63;2.60;;;;;;;14.70;86.18;100121.75;5010485;28;20022;-68
2023/10/15 01:04:51;;;;;;;5.53;2.92;;;;;;;14.70;86.75;100116.56;5009762;28;20022;-70
2023/10/15 01:07:34;;;;;;;16.77;3.35;;;;;;;14.15;84.66;100030.84;5009575;28;20519;-70
2023/10/15 01:10:00;;;;;;;3.67;2.58;;;;;;;14.23;85.86;100127.03;5009470;28;20040;-73
2023/10/15 01:12:35;;;;;;;5.45;2.88;;;;;;;13.96;86.84;100083.34;5010491;28;20026;-67
2023/10/15 01:15:00;;;;;;;9.02;3.25;;;;;;;14.22;88.00;100109.72;5009855;28;20116;-67
2023/10/15 01:17:36;;;;;;;25.75;4.10;;;;;;;14.23;86.16;100107.16;5009466;28;20076;-71
2023/10/15 01:20:09;;;;;;;7.55;3.40;;;;;;;14.30;86.66;100123.69;5008953;28;20080;-70
2023/10/15 01:22:39;;;;;;;15.68;4.28;;;;;;;14.22;84.44;100084.63;5008893;28;20038;-73
2023/10/15 01:25:24;;;;;;;6.28;3.00;;;;;;;14.20;85.79;100114.03;5024961;28;20136;-70
2023/10/15 01:27:54;;;;;;;6.25;3.15;;;;;;;14.12;86.58;100100.03;5009721;28;20455;-72
2023/10/15 01:30:24;;;;;;;9.13;3.10;;;;;;;14.22;85.93;100114.94;5009810;28;20026;-68
2023/10/15 01:32:50;;;;;;;8.00;3.13;;;;;;;14.06;85.72;100099.06;5008852;28;20056;-70
2023/10/15 01:35:19;;;;;;;6.78;2.90;;;;;;;14.07;85.64;100107.75;5008945;28;20034;-68
2023/10/15 01:37:57;;;;;;;7.90;3.03;;;;;;;13.95;86.33;100108.41;5009928;28;20084;-70
2023/10/15 01:40:44;;;;;;;7.13;2.90;;;;;;;14.00;86.71;100100.72;5009163;28;20033;-70
2023/10/15 01:43:14;;;;;;;7.68;2.70;;;;;;;14.06;86.02;100106.88;5008844;28;20044;-69
2023/10/15 01:45:41;;;;;;;5.63;2.80;;;;;;;13.78;86.54;100102.06;5009626;28;20124;-68
2023/10/15 01:48:24;;;;;;;10.25;3.10;;;;;;;13.78;87.86;100115.88;5009374;28;20104;-68
2023/10/15 01:50:50;;;;;;;49.75;4.60;;;;;;;13.83;88.57;100119.47;5007339;28;20033;-71
2023/10/15 01:53:16;;;;;;;7.55;2.90;;;;;;;13.87;89.43;100112.63;5009733;28;20041;-71
2023/10/15 01:56:02;;;;;;;7.97;2.80;;;;;;;13.96;89.64;100104.97;5009106;28;20054;-73
2023/10/15 01:58:33;;;;;;;8.07;3.70;;;;;;;13.99;93.45;100101.56;5009371;28;20109;-70
2023/10/15 02:01:13;;;;;;;9.85;3.35;;;;;;;14.07;94.83;100100.84;5009041;28;20052;-69
2023/10/15 02:03:38;;;;;;;;;;;;;;;14.05;96.15;100102.53;5009438;28;20107;-68
2023/10/15 02:06:06;;;;;;;8.25;3.33;;;;;;;14.04;96.04;100093.00;5009068;28;20363;-71
2023/10/15 02:08:31;;;;;;;6.70;3.42;;;;;;;14.09;95.13;100095.66;5008834;28;21100;-70
2023/10/15 02:10:57;;;;;;;11.27;3.33;;;;;;;14.10;95.93;100092.22;5012219;28;20022;-72
2023/10/15 02:13:22;;;;;;;7.97;3.72;;;;;;;14.13;95.84;100091.41;5013108;28;20109;-70
2023/10/15 02:15:55;;;;;;;8.80;3.10;;;;;;;14.15;94.12;100087.13;5012366;28;20018;-69
2023/10/15 02:18:21;;;;;;;51.55;5.78;;;;;;;14.08;91.47;100080.94;5013393;28;20068;-73
2023/10/15 02:23:19;;;;;;;11.68;3.72;;;;;;;13.86;90.90;100092.69;5012571;28;20494;-69
2023/10/15 02:25:57;;;;;;;6.75;3.75;;;;;;;13.76;91.26;100099.44;5013006;28;20030;-70
2023/10/15 02:28:27;;;;;;;8.13;3.70;;;;;;;13.63;91.04;100102.66;5009885;28;20080;-70
2023/10/15 02:31:00;;;;;;;8.63;3.88;;;;;;;13.42;90.68;100071.16;5013162;28;20040;-68
2023/10/15 02:33:27;;;;;;;10.55;3.90;;;;;;;13.68;90.44;100099.31;5027514;28;20083;-71
2023/10/15 02:35:54;;;;;;;6.03;3.22;;;;;;;13.72;89.50;100089.81;5013763;28;20022;-71
2023/10/15 02:38:26;;;;;;;6.30;3.00;;;;;;;13.47;87.84;100037.53;5012549;28;20044;-74
2023/10/15 02:41:06;;;;;;;5.18;3.03;;;;;;;13.54;86.38;100082.59;5012572;28;20029;-68
2023/10/15 02:43:36;;;;;;;10.52;3.40;;;;;;;13.46;86.97;100089.34;5011963;28;20036;-69
2023/10/15 02:48:48;;;;;;;8.68;3.47;;;;;;;13.53;86.30;100084.34;5012325;28;20454;-71
2023/10/15 02:51:17;;;;;;;6.55;3.35;;;;;;;13.45;85.95;100067.75;5012581;28;20453;-71
2023/10/15 02:53:50;;;;;;;;;;;;;;;13.56;85.77;100080.91;5012927;28;20436;-71
2023/10/15 02:56:17;;;;;;;11.23;3.90;;;;;;;13.46;85.33;100074.69;5010175;28;19921;-70
2023/10/15 02:58:44;;;;;;;8.15;3.50;;;;;;;13.51;86.33;100077.38;5012204;28;20030;-69
2023/10/15 03:01:20;;;;;;;8.90;3.55;;;;;;;13.46;86.92;100066.91;5011918;28;20080;-70
2023/10/15 03:03:50;;;;;;;8.20;4.25;;;;;;;13.45;88.06;100069.47;5014126;28;20412;-71
2023/10/15 03:06:31;;;;;;;5.53;3.03;;;;;;;13.47;88.57;100066.06;5012861;28;20084;-70
2023/10/15 03:08:57;;;;;;;6.53;3.70;;;;;;;13.55;86.75;100071.38;4999060;28;20025;-70
2023/10/15 03:11:23;;;;;;;6.75;3.20;;;;;;;13.49;86.20;100072.13;5013285;28;20025;-73
2023/10/15 03:13:53;;;;;;;7.53;3.03;;;;;;;13.50;86.37;100073.88;5012291;28;20476;-72
2023/10/15 03:16:30;;;;;;;8.48;3.33;;;;;;;13.57;86.30;100075.75;5011181;28;20404;-75
2023/10/15 03:18:56;;;;;;;5.97;3.30;;;;;;;13.51;85.86;100064.41;5003668;28;20033;-73
2023/10/15 03:21:26;;;;;;;6.85;3.10;;;;;;;13.57;85.82;100061.88;5011336;28;20030;-75
2023/10/15 03:23:55;;;;;;;6.85;3.53;;;;;;;13.59;84.94;100063.69;5011919;28;20496;-73
2023/10/15 03:26:23;;;;;;;7.05;3.45;;;;;;;13.64;84.86;100074.13;5010857;28;20042;-73
2023/10/15 03:28:51;;;;;;;6.38;2.83;;;;;;;13.42;84.25;100039.16;5012654;28;20042;-71
2023/10/15 03:31:30;;;;;;;7.70;3.33;;;;;;;13.63;83.66;100068.94;5012660;28;20037;-71
2023/10/15 03:42:17;;;;;;;10.60;4.38;;;;;;;13.13;82.62;100042.03;4931568;29;20051;-70
2023/10/15 03:44:45;;;;;;;9.55;3.30;;;;;;;13.31;82.85;100067.47;4932012;29;20164;-70
2023/10/15 03:47:15;;;;;;;6.78;3.20;;;;;;;13.38;81.35;100084.91;4932287;29;20036;-73
2023/10/15 03:49:44;;;;;;;9.93;3.40;;;;;;;13.22;80.26;100080.22;4932380;29;20035;-74
2023/10/15 03:52:14;;;;;;;11.52;3.95;;;;;;;13.29;80.54;100079.50;4931538;29;20529;-70
2023/10/15 03:54:42;;;;;;;8.40;3.17;;;;;;;13.07;80.08;100073.91;4931390;29;20052;-69
2023/10/15 03:57:08;;;;;;;7.63;3.63;;;;;;;13.00;80.81;100073.75;4931606;29;20067;-75
2023/10/15 03:59:44;;;;;;;10.07;3.22;;;;;;;12.75;81.62;100044.75;4931740;29;20106;-76
2023/10/15 04:02:22;;;;;;;6.18;3.42;;;;;;;12.67;82.59;100033.31;4924376;29;20032;-73
2023/10/15 04:04:56;;;;;;;9.35;3.35;;;;;;;12.74;82.59;100077.53;4923506;29;20486;-72
2023/10/15 04:07:23;;;;;;;10.60;3.58;;;;;;;12.39;84.38;100024.97;4932379;29;20537;-70
2023/10/15 04:09:50;;;;;;;7.45;3.42;;;;;;;12.52;84.91;100057.19;4931331;29;20076;-71
2023/10/15 04:12:18;;;;;;;17.00;3.85;;;;;;;12.20;86.20;100024.53;4932375;29;20043;-70
2023/10/15 04:14:44;;;;;;;10.18;4.07;;;;;;;12.50;87.48;100071.78;4965739;28;20130;-70
2023/10/15 04:17:10;;;;;;;18.20;4.40;;;;;;;12.55;87.83;100065.88;4953647;28;20459;-71
2023/10/15 04:19:36;;;;;;;8.50;3.65;;;;;;;12.55;87.50;100059.84;5002582;28;20050;-69
2023/10/15 04:22:14;;;;;;;10.30;3.88;;;;;;;12.55;88.13;100060.72;5011238;28;20032;-74
2023/10/15 04:24:41;;;;;;;10.48;3.53;;;;;;;12.50;87.71;100061.44;5003915;28;20050;-71
2023/10/15 04:27:14;;;;;;;9.27;3.55;;;;;;;12.25;86.55;100003.94;5014042;28;20423;-72
2023/10/15 04:29:47;;;;;;;7.07;3.67;;;;;;;12.51;85.74;100061.50;5013761;28;20479;-70
2023/10/15 04:32:17;;;;;;;11.68;3.45;;;;;;;12.49;86.53;100057.97;5007560;28;20499;-70
2023/10/15 04:34:44;;;;;;;15.88;4.47;;;;;;;12.55;86.35;100059.84;5011526;28;20484;-73
2023/10/15 04:37:16;;;;;;;14.57;3.60;;;;;;;12.58;86.01;100060.75;5014480;28;20101;-72
2023/10/15 04:39:52;;;;;;;9.23;3.47;;;;;;;12.36;85.83;100040.41;5014406;28;20029;-71
2023/10/15 04:42:30;;;;;;;13.20;3.47;;;;;;;12.22;85.94;100063.41;5013384;28;20116;-72
2023/10/15 04:44:55;;;;;;;8.45;3.28;;;;;;;12.09;85.06;100036.38;5012545;28;20061;-72
2023/10/15 04:47:41;;;;;;;7.97;3.03;;;;;;;12.18;83.78;100059.84;5010974;28;20080;-72
2023/10/15 04:50:16;;;;;;;11.38;3.55;;;;;;;12.17;83.27;100057.25;5009983;28;20034;-71
2023/10/15 04:52:42;;;;;;;7.57;3.08;;;;;;;12.23;82.51;100059.97;5008770;28;20042;-70
2023/10/15 04:55:10;;;;;;;6.95;3.20;;;;;;;12.25;81.88;100064.34;5007834;28;20265;-73
2023/10/15 04:57:36;;;;;;;8.77;3.10;;;;;;;12.24;81.78;100067.78;5008062;28;20515;-72
2023/10/15 05:00:06;;;;;;;8.50;3.38;;;;;;;12.12;82.60;100067.47;5007898;28;20046;-70
2023/10/15 05:02:32;;;;;;;;;;;;;;;12.09;84.32;100070.88;5007322;28;20113;-73
2023/10/15 05:04:57;;;;;;;9.20;3.30;;;;;;;11.82;86.74;100043.47;5006935;28;20008;-74
2023/10/15 05:07:23;;;;;;;10.75;3.80;;;;;;;11.76;87.41;100032.97;5008814;28;20045;-71
2023/10/15 05:09:49;;;;;;;8.15;3.17;;;;;;;12.06;87.38;100072.50;5007862;28;20029;-73
2023/10/15 05:12:14;;;;;;;8.98;2.90;;;;;;;11.85;86.97;100023.66;5008039;28;20042;-71
2023/10/15 05:14:40;;;;;;;7.97;3.35;;;;;;;12.12;87.02;100073.53;4997350;28;20057;-71
2023/10/15 05:17:05;;;;;;;6.40;3.10;;;;;;;12.07;87.10;100069.94;4981236;28;20085;-74
2023/10/15 05:19:31;;;;;;;8.50;3.47;;;;;;;11.95;88.68;100056.66;4979302;28;20050;-71
2023/10/15 05:21:57;;;;;;;8.02;3.05;;;;;;;11.97;88.84;100071.44;4961672;28;20054;-74
2023/10/15 05:24:23;;;;;;;8.00;3.60;;;;;;;11.91;89.07;100052.25;4990514;28;20039;-76
2023/10/15 05:26:50;;;;;;;8.48;4.25;;;;;;;11.96;88.51;100058.47;5002022;28;20030;-70
2023/10/15 05:29:15;;;;;;;8.10;3.97;;;;;;;12.06;89.15;100073.41;4997088;28;20034;-73
2023/10/15 05:31:42;;;;;;;6.47;3.42;;;;;;;12.16;90.40;100078.78;4999526;28;20429;-71
2023/10/15 05:34:08;;;;;;;7.78;3.90;;;;;;;12.23;91.15;100075.50;5019005;28;20575;-75
2023/10/15 05:36:59;;;;;;;6.95;4.15;;;;;;;12.19;91.42;100068.50;4988877;28;20520;-72
2023/10/15 05:39:27;;;;;;;12.35;3.88;;;;;;;12.12;91.84;100073.53;4989953;28;20534;-72
2023/10/15 05:41:52;;;;;;;7.65;3.65;;;;;;;12.02;92.39;100071.53;4988886;28;20042;-72
2023/10/15 05:44:18;;;;;;;5.72;3.22;;;;;;;11.89;93.24;100064.31;4972034;28;20100;-71
2023/10/15 05:46:46;;;;;;;9.82;3.88;;;;;;;11.93;93.59;100074.75;4989128;28;20046;-72
2023/10/15 05:49:12;;;;;;;13.30;4.15;;;;;;;12.04;94.13;100080.22;4991011;28;20037;-72
2023/10/15 05:51:38;;;;;;;7.47;3.58;;;;;;;12.14;94.41;100074.44;4992100;28;20158;-71
2023/10/15 05:54:04;;;;;;;7.40;3.63;;;;;;;12.28;94.27;100077.34;5007775;28;20049;-74
2023/10/15 05:56:30;;;;;;;10.93;4.80;;;;;;;12.30;94.35;100067.06;5008543;28;20109;-70
2023/10/15 05:58:56;;;;;;;8.15;4.18;;;;;;;12.53;94.28;100077.91;5008167;28;20045;-71
2023/10/15 06:01:21;;;;;;;16.35;6.35;;;;;;;12.62;93.76;100079.84;5008049;28;20083;-72
2023/10/15 06:03:47;;;;;;;12.52;7.53;;;;;;;12.68;93.56;100071.34;5008220;28;20037;-72
2023/10/15 06:06:13;;;;;;;9.82;5.30;;;;;;;12.74;94.22;100074.94;5008392;28;20041;-72
2023/10/15 06:08:39;;;;;;;9.85;5.63;;;;;;;12.75;95.33;100071.50;4994346;28;20074;-72
2023/10/15 06:11:05;;;;;;;10.65;5.80;;;;;;;12.72;96.81;100071.44;4974034;28;20567;-71
2023/10/15 06:13:31;;;;;;;9.60;5.70;;;;;;;12.68;98.53;100067.03;4991102;28;20065;-73
2023/10/15 06:15:56;;;;;;;12.55;6.22;;;;;;;12.74;98.58;100074.06;4990750;28;20030;-73
2023/10/15 06:18:22;;;;;;;17.63;7.88;;;;;;;12.54;99.74;100017.53;4989498;28;20440;-71
2023/10/15 06:20:47;;;;;;;17.98;7.90;;;;;;;12.93;99.43;100060.66;4990986;28;20030;-73
2023/10/15 06:23:13;;;;;;;17.17;7.25;;;;;;;12.81;98.74;100023.25;4990473;28;20039;-70
2023/10/15 06:25:39;;;;;;;15.02;6.82;;;;;;;13.12;98.49;100063.59;4990735;28;20061;-71
2023/10/15 06:28:05;;;;;;;14.80;6.88;;;;;;;13.24;97.89;100053.47;4989620;28;20035;-73
2023/10/15 06:30:31;;;;;;;14.15;7.18;;;;;;;13.46;97.89;100056.53;4994439;28;20037;-74
2023/10/15 06:32:56;;;;;;;14.65;8.90;;;;;;;13.43;98.43;100023.63;5010091;28;20030;-77
2023/10/15 06:35:25;;;;;;;14.70;7.68;;;;;;;13.73;98.41;100060.44;5010116;28;20026;-72
2023/10/15 06:37:57;;;;;;;17.85;9.30;;;;;;;13.96;98.60;100063.44;5027676;28;20041;-71
2023/10/15 06:40:24;;;;;;;15.27;8.27;;;;;;;14.07;98.53;100064.50;5012458;28;20492;-72
2023/10/15 06:42:51;;;;;;;15.45;8.77;;;;;;;14.24;97.93;100063.88;5009960;28;20087;-73
2023/10/15 06:45:19;;;;;;;20.00;9.00;;;;;;;14.42;96.88;100062.41;5009807;28;20041;-73
2023/10/15 06:47:51;;;;;;;13.70;8.48;;;;;;;14.59;95.64;100070.44;5010390;28;20482;-71
2023/10/15 06:50:19;;;;;;;13.45;7.47;;;;;;;14.76;94.07;100065.53;5009008;28;20041;-74
2023/10/15 06:52:45;;;;;;;13.20;8.20;;;;;;;14.92;93.13;100058.81;5009412;28;20496;-70
2023/10/15 06:55:13;;;;;;;13.98;8.68;;;;;;;15.09;92.13;100054.69;5009890;28;20424;-71
2023/10/15 06:57:39;;;;;;;15.95;9.32;;;;;;;15.17;93.71;100059.97;5013209;28;20452;-73
2023/10/15 07:00:09;;;;;;;17.05;10.13;;;;;;;15.10;96.09;100068.53;5034074;28;20037;-74
2023/10/15 07:02:35;;;;;;;21.98;11.20;;;;;;;14.88;96.72;100001.56;5050549;28;20041;-71
2023/10/15 07:05:02;;;;;;;19.17;10.40;;;;;;;15.11;97.04;100047.75;5050830;28;20464;-70
2023/10/15 07:07:28;;;;;;;17.92;10.27;;;;;;;15.33;96.80;100046.28;5050976;28;20120;-76
2023/10/15 07:09:54;;;;;;;17.70;9.60;;;;;;;15.47;96.61;100040.34;5033937;28;20442;-70
2023/10/15 07:12:20;;;;;;;16.45;9.32;;;;;;;15.42;95.87;100023.81;5050528;28;20479;-71
2023/10/15 07:14:46;;;;;;;22.20;10.63;;;;;;;15.53;95.33;99998.78;5050456;28;20152;-73
2023/10/15 07:17:13;;;;;;;18.63;11.18;;;;;;;15.67;95.20;100004.09;5050495;28;20029;-72
2023/10/15 07:19:39;;;;;;;14.60;8.70;;;;;;;15.94;94.76;100047.75;5050460;28;20499;-74
2023/10/15 07:22:07;;;;;;;14.85;9.82;;;;;;;16.05;94.24;100047.84;5050442;28;20411;-70
2023/10/15 07:24:33;;;;;;;17.38;10.13;;;;;;;16.20;93.42;100039.25;5001324;28;20049;-71
2023/10/15 07:27:01;;;;;;;17.00;10.07;;;;;;;16.37;92.33;100041.97;5050197;28;20035;-73
2023/10/15 07:29:28;;;;;;;17.15;10.15;;;;;;;16.45;92.12;100042.03;5050534;28;20036;-73
2023/10/15 07:31:54;;;;;;;20.30;10.68;;;;;;;16.51;91.98;100029.03;5014742;28;20145;-71
2023/10/15 07:34:19;;;;;;;14.70;9.82;;;;;;;16.57;91.11;100023.84;5012918;28;20038;-71
2023/10/15 07:36:45;;;;;;;19.02;9.50;;;;;;;16.50;91.84;100028.16;5013218;28;20034;-76
2023/10/15 07:39:14;;;;;;;15.77;9.95;;;;;;;16.60;91.94;100023.88;5012936;28;20029;-72
2023/10/15 07:41:39;;;;;;;15.88;10.05;;;;;;;16.55;91.92;100022.09;5012850;28;20065;-70
2023/10/15 07:44:04;;;;;;;15.80;9.85;;;;;;;16.53;90.78;99992.56;5012940;28;20042;-76
2023/10/15 07:46:33;;;;;;;15.38;9.02;;;;;;;16.84;89.83;100019.63;5012970;28;20089;-70
2023/10/15 07:49:00;;;;;;;17.10;10.10;;;;;;;17.01;89.32;100022.34;5011258;28;20436;-73
2023/10/15 07:51:27;;;;;;;14.98;9.13;;;;;;;17.05;89.32;100015.41;5012487;28;20042;-75
2023/10/15 07:53:53;;;;;;;13.38;9.13;;;;;;;17.12;89.07;100007.59;5012214;28;20057;-74
2023/10/15 07:56:21;;;;;;;15.23;9.38;;;;;;;17.42;87.79;100012.84;5012418;28;20083;-71
2023/10/15 07:58:47;;;;;;;16.58;10.18;;;;;;;17.36;87.43;100018.06;5012624;28;20381;-72
2023/10/15 08:01:13;;;;;;;14.75;9.23;;;;;;;17.44;87.61;100014.59;5011289;28;20037;-70
2023/10/15 08:03:38;;;;;;;14.73;8.85;;;;;;;17.63;86.88;100014.63;5012033;28;20037;-71
2023/10/15 08:06:03;;;;;;;15.77;9.20;;;;;;;17.63;86.73;100012.88;5011851;28;20373;-73
2023/10/15 08:08:29;;;;;;;14.98;8.95;;;;;;;17.53;86.62;99987.63;5026495;28;20034;-73
2023/10/15 08:10:56;;;;;;;13.55;8.75;;;;;;;17.63;86.06;100006.78;5011292;28;20030;-72
2023/10/15 08:13:22;;;;;;;14.25;9.18;;;;;;;17.75;85.59;100000.72;5011761;28;20042;-72
2023/10/15 08:15:47;;;;;;;12.30;9.20;;;;;;;17.86;85.13;99993.75;5025866;28;20641;-72
2023/10/15 08:18:13;;;;;;;15.07;9.20;;;;;;;17.85;84.21;99959.81;5026787;28;20014;-71
2023/10/15 08:20:39;;;;;;;13.38;8.93;;;;;;;18.10;84.14;99984.16;5011422;28;20033;-72
2023/10/15 08:23:05;;;;;;;12.68;8.80;;;;;;;18.18;83.44;99989.38;5011228;28;20048;-75
2023/10/15 08:25:34;;;;;;;14.02;8.88;;;;;;;18.13;82.36;99955.44;5010780;28;20049;-73
2023/10/15 08:27:59;;;;;;;11.70;8.02;;;;;;;18.34;82.46;99978.00;5011352;28;20049;-73
2023/10/15 08:30:25;;;;;;;11.50;8.02;;;;;;;18.49;81.80;99982.34;5010600;28;20037;-71
2023/10/15 08:32:50;;;;;;;14.90;8.43;;;;;;;18.58;81.35;99978.81;5011491;28;20038;-70
2023/10/15 08:35:16;;;;;;;12.57;8.07;;;;;;;18.78;80.15;99980.47;5011451;28;20053;-73
2023/10/15 08:37:45;;;;;;;10.98;7.95;;;;;;;18.87;80.41;99968.22;5011004;28;20037;-71
2023/10/15 08:40:17;;;;;;;11.10;6.28;;;;;;;19.05;79.06;99969.00;5011470;28;20018;-71
2023/10/15 08:42:51;;;;;;;9.57;7.40;;;;;;;19.06;78.29;99970.75;5008540;28;20041;-74
2023/10/15 08:45:21;;;;;;;12.40;6.85;;;;;;;19.12;78.44;99944.56;5026423;28;20025;-71
2023/10/15 08:47:48;;;;;;;10.20;7.07;;;;;;;19.44;76.46;99964.41;5011017;28;20076;-68
2023/10/15 08:50:16;;;;;;;13.23;6.55;;;;;;;19.63;75.96;99966.88;5047840;28;20120;-73
2023/10/15 08:52:46;;;;;;;9.73;6.30;;;;;;;19.61;74.90;99963.41;5045555;28;20039;-70
2023/10/15 08:55:12;;;;;;;10.88;6.85;;;;;;;19.77;73.66;99965.00;5045995;28;20060;-70
2023/10/15 08:57:38;;;;;;;16.98;7.60;;;;;;;19.80;73.57;99964.97;5048288;28;20036;-70
2023/10/15 09:00:05;;;;;;;31.55;21.88;;;;;;;19.82;73.67;99960.56;5047329;28;20079;-72
2023/10/15 09:02:31;;;;;;;17.27;13.95;;;;;;;19.76;73.52;99941.44;5047727;28;20036;-71
2023/10/15 09:04:56;;;;;;;17.92;11.52;;;;;;;19.86;73.61;99948.34;5047596;28;20569;-72
2023/10/15 09:07:23;;;;;;;12.60;10.25;;;;;;;20.10;72.23;99944.63;5033754;28;20055;-71
2023/10/15 09:09:49;;;;;;;7.95;5.40;;;;;;;20.16;71.68;99923.59;5034417;28;20056;-72
2023/10/15 09:12:14;;;;;;;10.50;6.15;;;;;;;20.23;70.99;99920.91;5046478;28;20499;-73
2023/10/15 09:14:44;;;;;;;14.95;12.65;;;;;;;20.23;70.07;99913.06;5046071;28;20087;-72
2023/10/15 09:17:14;;;;;;;;;;;;;;;20.34;69.41;99927.75;5048410;28;20060;-72
2023/10/15 09:19:43;;;;;;;15.32;9.63;;;;;;;20.43;69.47;99928.53;5021326;28;19963;-68
2023/10/15 09:22:16;;;;;;;8.47;5.17;;;;;;;20.42;69.20;99927.66;5047305;28;20135;-72
2023/10/15 09:24:42;;;;;;;14.93;10.15;;;;;;;20.33;68.72;99896.31;5047762;28;20037;-72
2023/10/15 09:27:08;;;;;;;15.68;12.27;;;;;;;20.43;69.06;99911.03;5036622;28;20044;-74
2023/10/15 09:29:33;;;;;;;9.07;5.45;;;;;;;20.41;68.58;99918.06;5022771;28;20409;-72
2023/10/15 09:32:22;;;;;;;10.82;4.78;;;;;;;20.39;68.25;99914.59;5061641;28;20287;-73
2023/10/15 09:34:48;;;;;;;6.45;3.95;;;;;;;20.34;67.17;99912.03;5068723;28;20605;-70
2023/10/15 09:37:15;;;;;;;10.65;4.70;;;;;;;20.39;66.59;99901.47;5074126;28;20063;-72
2023/10/15 09:39:43;;;;;;;10.75;5.60;;;;;;;20.64;68.00;99898.53;5077154;28;20029;-72
2023/10/15 09:42:09;;;;;;;9.93;4.82;;;;;;;20.85;66.47;99897.41;5071989;28;20068;-70
2023/10/15 09:44:35;;;;;;;7.00;4.20;;;;;;;21.16;62.92;99892.53;5049105;28;20032;-72
2023/10/15 09:47:01;;;;;;;6.85;3.55;;;;;;;21.42;62.26;99878.13;5066913;28;20430;-70
2023/10/15 09:49:31;;;;;;;8.10;3.65;;;;;;;21.55;61.58;99870.03;5050013;28;20482;-72
2023/10/15 09:52:01;;;;;;;31.20;28.15;;;;;;;21.84;61.39;99866.03;5066796;28;20037;-72
2023/10/15 09:54:32;;;;;;;8.40;4.00;;;;;;;21.95;59.48;99870.16;5067004;28;20243;-73
2023/10/15 09:57:00;;;;;;;7.70;4.30;;;;;;;22.01;59.52;99863.06;5059738;28;20047;-72
2023/10/15 09:59:26;;;;;;;7.55;4.07;;;;;;;22.00;60.97;99856.94;5059299;28;20117;-72
2023/10/15 10:01:54;;;;;;;8.02;3.85;;;;;;;22.11;62.72;99833.94;5050247;28;20028;-70
2023/10/15 10:04:42;;;;;;;8.20;3.65;;;;;;;22.25;64.40;99838.03;5007478;28;20049;-72
2023/10/15 10:07:23;;;;;;;11.65;4.38;;;;;;;22.52;60.52;99833.97;5007335;28;20081;-70
2023/10/15 10:10:09;;;;;;;5.72;3.30;;;;;;;22.72;58.92;99830.88;5009668;28;20030;-72
2023/10/15 10:12:58;;;;;;;11.02;4.07;;;;;;;22.94;56.83;99820.69;5006585;28;20081;-72
2023/10/15 10:15:28;;;;;;;8.57;3.97;;;;;;;23.07;56.50;99808.09;5006751;28;20141;-72
2023/10/15 10:17:53;;;;;;;;;;;;;;;23.15;55.74;99807.88;5007233;28;20125;-72
2023/10/15 10:20:19;;;;;;;8.55;3.95;;;;;;;23.21;55.47;99791.09;4990895;28;20015;-72
2023/10/15 10:22:57;;;;;;;6.60;3.53;;;;;;;23.35;56.06;99791.63;5007605;28;20045;-72
2023/10/15 10:25:39;;;;;;;6.95;3.38;;;;;;;23.56;53.93;99791.94;4990047;28;20034;-71
2023/10/15 10:28:10;;;;;;;9.38;4.15;;;;;;;23.77;53.34;99789.59;4991573;28;20038;-71
2023/10/15 10:30:37;;;;;;;7.28;3.50;;;;;;;23.89;54.42;99784.84;5007126;28;20228;-71
2023/10/15 10:33:03;;;;;;;7.00;3.75;;;;;;;24.02;53.19;99779.25;5011011;28;20496;-68
2023/10/15 10:35:40;;;;;;;9.43;3.60;;;;;;;24.08;46.36;99776.41;5010787;28;20204;-68
2023/10/15 10:38:10;;;;;;;8.10;3.35;;;;;;;24.15;47.76;99774.44;5010745;28;20048;-69
2023/10/15 10:40:51;;;;;;;11.48;3.72;;;;;;;24.35;46.16;99766.78;5009487;28;20094;-70
2023/10/15 10:43:19;;;;;;;8.68;4.35;;;;;;;24.29;45.83;99761.72;5009401;28;20058;-70
2023/10/15 10:45:51;;;;;;;8.98;3.28;;;;;;;24.43;45.11;99756.00;4988445;28;20037;-68
2023/10/15 10:48:29;;;;;;;6.47;3.30;;;;;;;24.55;45.46;99746.84;5009608;28;20084;-67
2023/10/15 10:51:11;;;;;;;12.27;3.75;;;;;;;24.76;46.84;99755.84;5002767;28;20119;-70
2023/10/15 10:53:37;;;;;;;6.97;3.20;;;;;;;24.77;45.05;99757.56;4996531;28;20045;-71
2023/10/15 10:56:04;;;;;;;7.85;3.55;;;;;;;24.80;44.08;99756.59;5025162;28;20065;-70
2023/10/15 10:58:30;;;;;;;6.35;3.30;;;;;;;24.91;43.98;99748.31;4997415;28;20031;-69
2023/10/15 11:00:59;;;;;;;21.48;4.50;;;;;;;24.96;42.83;99744.63;5011313;28;20041;-70
2023/10/15 11:03:24;;;;;;;28.42;5.60;;;;;;;25.04;43.87;99734.63;5011738;28;20040;-71
2023/10/15 11:05:54;;;;;;;14.93;3.83;;;;;;;25.10;43.53;99719.53;5012430;28;20034;-71
2023/10/15 11:08:21;;;;;;;9.73;3.47;;;;;;;25.11;43.46;99702.72;5012828;28;20022;-72
2023/10/15 11:10:47;;;;;;;6.13;3.53;;;;;;;25.41;42.47;99715.78;5003454;28;20065;-70
2023/10/15 11:13:15;;;;;;;8.00;3.50;;;;;;;25.42;41.76;99718.38;5004041;28;20500;-69
2023/10/15 11:15:42;;;;;;;6.22;3.10;;;;;;;25.51;43.00;99714.53;5009158;28;20603;-70
2023/10/15 11:18:09;;;;;;;8.00;3.63;;;;;;;25.48;44.14;99693.50;4985694;28;20045;-69
2023/10/15 11:20:35;;;;;;;5.07;3.10;;;;;;;25.52;40.43;99710.97;4994359;28;20106;-71
2023/10/15 11:23:06;;;;;;;5.82;3.05;;;;;;;25.63;40.04;99706.16;5000833;28;20078;-71
2023/10/15 11:25:35;;;;;;;9.48;3.38;;;;;;;25.61;41.73;99692.13;4999541;28;20057;-71
2023/10/15 11:28:07;;;;;;;8.10;3.58;;;;;;;25.66;42.17;99700.75;5003185;28;20045;-71
2023/10/15 11:30:35;;;;;;;6.90;3.63;;;;;;;25.73;39.92;99692.56;5002898;28;20050;-71
2023/10/15 11:33:07;;;;;;;8.13;3.90;;;;;;;25.77;40.23;99673.91;4993789;28;20500;-68
2023/10/15 11:35:33;;;;;;;9.15;3.80;;;;;;;25.92;40.55;99684.78;4993043;28;20039;-71
2023/10/15 11:37:59;;;;;;;8.70;3.30;;;;;;;25.86;40.81;99685.03;4995353;28;20028;-71
2023/10/15 11:40:25;;;;;;;6.10;3.38;;;;;;;25.92;40.15;99680.38;5000972;28;20045;-71
2023/10/15 11:42:51;;;;;;;6.85;3.22;;;;;;;25.96;39.73;99681.13;5008357;28;20055;-72
2023/10/15 11:45:30;;;;;;;6.75;3.30;;;;;;;25.99;41.28;99680.97;5009202;28;20030;-74